Time;durP1;ratioP1;P1;durP2;ratioP2;P2;SDS_P1;SDS_P2;PMS_P1;PMS_P2;Temp;Humidity;BMP_temperature;BMP_pressure;BME280_temperature;BME280_humidity;BME280_pressure;Samples;Min_cycle;Max_cycle;Signal;HPM_P1;HPM_P2
2022/09/14 00:01:35;;;;;;;0.50;0.50;;;18.70;68.30;;;18.85;53.31;94307.03;5032636;28;20223;-78
2022/09/14 00:04:19;;;;;;;0.50;0.50;;;18.70;68.20;;;18.78;53.21;94308.31;5029375;28;20334;-79
2022/09/14 00:06:46;;;;;;;0.70;0.70;;;18.60;67.90;;;18.71;53.11;94306.69;4997751;28;20235;-79
2022/09/14 00:09:21;;;;;;;0.50;0.50;;;18.50;68.00;;;18.65;53.41;94298.94;5028500;28;20718;-79
2022/09/14 00:11:50;;;;;;;0.50;0.50;;;18.50;68.10;;;18.59;53.21;94292.00;5015506;28;20221;-79
2022/09/14 00:14:18;;;;;;;0.50;0.50;;;18.40;68.10;;;18.54;53.41;94296.25;5027497;28;20662;-79
2022/09/14 00:16:46;;;;;;;0.50;0.50;;;18.40;68.20;;;18.50;53.21;94289.84;5028566;28;20224;-79
2022/09/14 00:19:24;;;;;;;0.50;0.50;;;18.30;68.20;;;18.48;53.59;94291.16;4996158;28;20216;-79
2022/09/14 00:21:54;;;;;;;0.50;0.50;;;18.20;68.50;;;18.40;53.57;94284.47;5011213;28;20212;-79
2022/09/14 00:24:26;;;;;;;0.50;0.50;;;18.20;68.60;;;18.35;53.61;94281.78;4995150;28;20212;-79
2022/09/14 00:26:53;;;;;;;0.40;0.40;;;18.10;68.50;;;18.29;53.65;94275.63;5012229;28;20217;-78
2022/09/14 00:29:22;;;;;;;0.50;0.50;;;18.10;68.60;;;18.23;54.02;94272.16;5012353;28;20205;-78
2022/09/14 00:31:50;;;;;;;0.50;0.50;;;18.00;68.60;;;18.18;54.29;94281.94;5012361;28;20231;-79
2022/09/14 00:34:18;;;;;;;0.50;0.50;;;18.00;68.90;;;18.14;54.14;94273.69;5006871;28;20240;-79
2022/09/14 00:36:48;;;;;;;0.50;0.50;;;18.00;68.90;;;18.11;54.48;94273.41;5027535;28;20242;-79
2022/09/14 00:39:17;;;;;;;0.50;0.50;;;17.90;69.10;;;18.08;54.55;94272.06;5031130;28;20188;-78
2022/09/14 00:41:47;;;;;;;0.50;0.50;;;17.90;69.20;;;18.04;54.06;94263.00;5030227;28;20219;-79
2022/09/14 00:44:14;;;;;;;0.60;0.60;;;17.80;69.30;;;18.03;54.67;94269.38;5011154;28;20203;-79
2022/09/14 00:46:47;;;;;;;0.60;0.60;;;17.90;69.40;;;18.00;54.46;94275.19;5023405;28;20647;-79
2022/09/14 00:49:39;;;;;;;0.60;0.60;;;17.80;69.80;;;17.95;54.70;94273.28;5034345;28;20648;-79
2022/09/14 00:52:13;;;;;;;0.60;0.60;;;17.80;70.00;;;17.93;54.79;94280.66;5027757;28;20211;-79
2022/09/14 00:55:04;;;;;;;0.50;0.50;;;17.80;69.70;;;17.90;55.15;94276.66;5006602;28;20189;-79
2022/09/14 00:57:41;;;;;;;0.50;0.50;;;17.80;69.70;;;17.90;54.91;94279.31;5016720;28;20232;-78
2022/09/14 01:00:10;;;;;;;0.50;0.50;;;17.70;70.00;;;17.88;55.33;94281.44;5006099;28;20657;-79
2022/09/14 01:02:38;;;;;;;0.60;0.60;;;17.70;69.80;;;17.89;54.86;94272.44;5008262;28;20224;-78
2022/09/14 01:05:08;;;;;;;0.52;0.52;;;17.70;69.80;;;17.89;55.09;94276.91;5012955;28;20224;-79
2022/09/14 01:08:21;;;;;;;0.60;0.60;;;17.70;70.00;;;17.92;54.90;94279.06;5027594;28;20259;-79
2022/09/14 01:11:14;;;;;;;0.50;0.50;;;17.70;70.30;;;17.90;55.53;94276.66;4993020;28;20184;-77
2022/09/14 01:14:09;;;;;;;0.60;0.60;;;17.70;70.60;;;17.91;55.10;94282.78;5024619;28;20201;-79
2022/09/14 01:17:13;;;;;;;0.50;0.50;;;17.70;70.60;;;17.91;55.34;94286.22;5009236;28;20239;-79
2022/09/14 01:19:59;;;;;;;0.50;0.50;;;17.70;70.60;;;17.91;55.18;94282.78;5009731;28;20238;-79
2022/09/14 01:23:05;;;;;;;0.50;0.50;;;17.70;70.60;;;17.90;55.47;94281.97;5018292;28;20274;-79
2022/09/14 01:26:32;;;;;;;0.43;0.43;;;17.70;70.50;;;17.88;55.69;94278.78;5023312;28;20176;-78
2022/09/14 01:29:15;;;;;;;0.57;0.57;;;17.70;70.70;;;17.88;55.77;94273.47;5002231;28;20223;-78
2022/09/14 01:32:07;;;;;;;0.50;0.50;;;17.70;70.70;;;17.90;55.65;94275.88;5022538;28;20224;-78
2022/09/14 01:35:00;;;;;;;0.50;0.50;;;17.70;71.00;;;17.87;55.93;94271.06;5002805;28;20185;-79
2022/09/14 01:38:00;;;;;;;0.52;0.52;;;17.80;70.90;;;17.87;55.84;94279.81;5030463;28;20828;-78
2022/09/14 01:40:38;;;;;;;0.50;0.50;;;17.80;71.00;;;17.86;55.67;94280.88;5034091;28;20218;-78
2022/09/14 01:43:10;;;;;;;0.50;0.50;;;17.70;71.00;;;17.90;56.16;94283.81;5014691;28;20228;-78
2022/09/14 01:45:52;;;;;;;0.50;0.50;;;17.70;70.60;;;17.90;55.80;94287.28;5012320;28;20212;-79
2022/09/14 01:48:27;;;;;;;0.50;0.50;;;17.80;71.00;;;17.92;56.33;94285.16;5009321;28;20752;-78
2022/09/14 01:50:57;;;;;;;0.50;0.50;;;17.70;70.90;;;17.97;56.46;94280.97;5003129;28;20221;-78
2022/09/14 01:53:46;;;;;;;0.55;0.55;;;17.80;70.90;;;18.01;56.37;94279.44;5032283;28;20199;-78
2022/09/14 01:56:20;;;;;;;0.50;0.50;;;17.80;70.90;;;18.07;55.76;94275.75;5025472;28;20208;-79
2022/09/14 01:59:11;;;;;;;0.50;0.50;;;17.80;70.80;;;18.12;56.32;94267.84;4998837;28;20594;-79
2022/09/14 02:02:04;;;;;;;0.50;0.50;;;17.80;71.40;;;18.15;55.90;94267.34;5028848;28;20229;-79
2022/09/14 02:04:51;;;;;;;0.50;0.50;;;17.90;71.50;;;18.18;56.31;94248.22;5033557;28;20187;-79
2022/09/14 02:07:19;;;;;;;0.50;0.50;;;18.00;71.50;;;18.22;56.29;94244.03;5015609;28;20220;-79
2022/09/14 02:09:47;;;;;;;0.60;0.60;;;18.00;71.20;;;18.24;56.40;94247.19;4999637;28;20215;-79
2022/09/14 02:12:15;;;;;;;0.60;0.60;;;18.00;71.10;;;18.25;56.44;94240.06;5018675;28;20216;-78
2022/09/14 02:14:45;;;;;;;0.50;0.50;;;18.00;71.30;;;18.25;56.23;94242.72;4998335;28;20541;-78
2022/09/14 02:17:13;;;;;;;0.50;0.50;;;18.00;71.40;;;18.26;56.02;94232.88;5011636;28;20232;-78
2022/09/14 02:19:47;;;;;;;0.50;0.50;;;18.00;71.20;;;18.26;56.52;94231.03;4996350;28;20189;-79
2022/09/14 02:22:15;;;;;;;0.40;0.40;;;18.00;71.60;;;18.24;56.67;94235.81;5012856;28;20219;-79
2022/09/14 02:24:42;;;;;;;0.40;0.40;;;18.00;71.30;;;18.23;56.12;94236.84;5012608;28;20275;-78
2022/09/14 02:27:09;;;;;;;0.50;0.50;;;18.00;71.10;;;18.20;56.22;94224.91;5027878;28;20422;-79
2022/09/14 02:29:37;;;;;;;0.55;0.55;;;18.00;71.10;;;18.19;56.10;94214.53;4996176;28;20247;-79
2022/09/14 02:32:28;;;;;;;0.50;0.50;;;18.00;71.20;;;18.18;56.66;94212.94;5014682;28;20220;-80
2022/09/14 02:35:26;;;;;;;0.50;0.50;;;17.90;71.30;;;18.13;56.61;94223.53;5028856;28;20243;-79
2022/09/14 02:38:28;;;;;;;0.52;0.52;;;18.00;71.40;;;18.08;56.48;94227.72;5003050;28;20255;-78
2022/09/14 02:41:09;;;;;;;0.50;0.50;;;17.90;71.10;;;18.04;56.33;94228.50;4996193;28;20188;-79
2022/09/14 02:43:54;;;;;;;0.50;0.50;;;17.90;71.20;;;18.05;56.52;94225.59;5004842;28;20193;-79
2022/09/14 02:46:47;;;;;;;0.50;0.50;;;17.90;71.30;;;18.09;56.66;94217.94;4980836;28;20224;-78
2022/09/14 02:49:43;;;;;;;0.50;0.50;;;17.90;71.10;;;18.14;56.94;94233.88;5035129;28;20224;-79
2022/09/14 02:52:39;;;;;;;0.40;0.40;;;17.90;71.10;;;18.22;57.07;94244.03;5027377;28;20213;-79
2022/09/14 02:55:12;;;;;;;0.40;0.40;;;18.00;71.40;;;18.31;57.04;94244.34;4982080;28;20213;-78
2022/09/14 02:58:07;;;;;;;0.57;0.57;;;18.10;71.60;;;18.38;57.22;94250.22;5016173;28;20221;-79
2022/09/14 03:00:42;;;;;;;0.50;0.50;;;18.10;71.40;;;18.45;57.15;94255.28;5020558;28;20207;-77
2022/09/14 03:03:13;;;;;;;0.40;0.40;;;18.20;71.50;;;18.54;56.96;94252.94;5012972;28;20234;-79
2022/09/14 03:05:40;;;;;;;0.60;0.60;;;18.30;71.50;;;18.63;56.90;94247.97;5022462;28;20207;-79
2022/09/14 03:08:11;;;;;;;0.50;0.50;;;18.30;71.50;;;18.65;56.60;94259.09;5013890;28;20224;-79
2022/09/14 03:10:42;;;;;;;0.43;0.43;;;18.50;71.50;;;18.73;56.97;94259.41;4996912;28;20193;-79
2022/09/14 03:13:10;;;;;;;0.52;0.52;;;18.60;71.40;;;18.80;56.29;94242.47;4995755;28;20242;-79
2022/09/14 03:15:38;;;;;;;0.50;0.50;;;18.50;71.20;;;18.84;56.38;94241.66;5007070;28;20691;-79
2022/09/14 03:18:06;;;;;;;0.50;0.50;;;18.60;71.10;;;18.85;56.18;94240.59;5027718;28;20239;-78
2022/09/14 03:20:39;;;;;;;0.52;0.52;;;18.70;71.30;;;18.90;56.24;94231.84;5011202;28;20542;-79
2022/09/14 03:23:08;;;;;;;0.30;0.30;;;18.70;71.00;;;18.89;56.60;94214.31;5015166;28;20248;-79
2022/09/14 03:25:42;;;;;;;0.50;0.50;;;18.70;71.00;;;18.98;56.54;94204.81;5007464;28;20197;-79
2022/09/14 03:28:11;;;;;;;0.43;0.43;;;18.70;70.90;;;18.99;56.29;94187.81;5020944;28;20240;-78
2022/09/14 03:30:38;;;;;;;0.50;0.50;;;18.80;70.90;;;19.04;56.61;94198.44;5023434;28;20247;-79
2022/09/14 03:33:05;;;;;;;0.43;0.43;;;18.80;70.90;;;19.06;56.11;94192.06;5020548;28;20299;-79
2022/09/14 03:35:33;;;;;;;0.50;0.50;;;18.80;71.00;;;19.10;56.35;94190.47;5023579;28;20219;-79
2022/09/14 03:38:02;;;;;;;0.40;0.40;;;18.80;71.00;;;19.11;56.04;94195.53;5036339;28;20232;-79
2022/09/14 03:40:29;;;;;;;0.45;0.45;;;18.80;71.20;;;19.09;56.33;94183.56;5022410;28;20254;-79
2022/09/14 03:42:57;;;;;;;0.60;0.60;;;18.90;71.30;;;19.12;56.00;94185.69;5030687;28;20705;-79
2022/09/14 03:45:24;;;;;;;0.40;0.40;;;18.90;71.30;;;19.02;56.58;94168.66;5012622;28;20270;-79
2022/09/14 03:47:51;;;;;;;0.50;0.50;;;18.90;71.20;;;19.06;56.33;94182.22;5024033;28;20235;-79
2022/09/14 03:50:19;;;;;;;0.50;0.50;;;18.80;71.10;;;19.03;56.08;94180.09;5027027;28;20189;-79
2022/09/14 03:52:47;;;;;;;0.40;0.40;;;18.80;71.00;;;18.98;56.56;94172.91;5026999;28;20224;-79
2022/09/14 03:55:14;;;;;;;0.50;0.50;;;18.80;71.00;;;18.96;55.99;94175.03;5022233;28;20266;-79
2022/09/14 03:57:41;;;;;;;0.50;0.50;;;18.80;71.20;;;18.94;56.23;94171.81;5012905;28;20228;-78
2022/09/14 04:00:10;;;;;;;0.50;0.50;;;18.70;71.10;;;18.88;56.42;94175.50;5019558;28;20196;-79
2022/09/14 04:02:38;;;;;;;0.50;0.50;;;18.80;71.30;;;18.84;56.34;94171.78;5016795;28;20228;-79
2022/09/14 04:05:06;;;;;;;0.50;0.50;;;18.70;71.30;;;18.82;56.99;94171.25;4995988;28;20211;-80
2022/09/14 04:07:33;;;;;;;0.50;0.50;;;18.70;71.40;;;18.78;57.26;94164.88;5007415;28;20224;-80
2022/09/14 04:10:01;;;;;;;0.52;0.52;;;18.70;71.50;;;18.76;57.24;94178.41;4997647;28;20326;-80
2022/09/14 04:12:28;;;;;;;0.47;0.47;;;18.60;71.40;;;18.66;56.64;94165.09;5026835;28;20225;-80
2022/09/14 04:14:55;;;;;;;0.50;0.50;;;18.70;71.50;;;18.68;57.49;94166.41;5026415;28;20197;-79
2022/09/14 04:17:23;;;;;;;0.43;0.43;;;18.60;71.50;;;18.70;57.13;94171.47;5009598;28;20722;-79
2022/09/14 04:19:50;;;;;;;0.50;0.50;;;18.60;71.50;;;18.71;57.16;94171.22;5009708;28;20201;-79
2022/09/14 04:22:18;;;;;;;0.45;0.45;;;18.60;71.60;;;18.71;57.26;94162.44;4995215;28;20228;-80
2022/09/14 04:24:46;;;;;;;0.40;0.40;;;18.60;71.70;;;18.70;57.10;94153.69;5042375;28;20199;-80
2022/09/14 04:27:13;;;;;;;0.45;0.45;;;18.50;71.70;;;18.68;57.09;94153.13;5012494;28;20221;-80
2022/09/14 04:29:40;;;;;;;0.50;0.50;;;18.50;71.70;;;18.64;57.20;94151.25;5035989;28;20278;-80
2022/09/14 04:32:07;;;;;;;0.50;0.50;;;18.50;71.80;;;18.63;57.47;94141.72;4995992;28;20228;-80
2022/09/14 04:34:34;;;;;;;0.50;0.50;;;18.50;71.70;;;18.63;57.21;94155.00;5010847;28;20628;-80
2022/09/14 04:37:03;;;;;;;0.60;0.60;;;18.50;71.90;;;18.60;56.92;94150.19;5011738;28;20778;-80
2022/09/14 04:39:30;;;;;;;0.50;0.50;;;18.50;72.10;;;18.60;57.38;94160.81;5012386;28;20651;-80
2022/09/14 04:41:57;;;;;;;0.50;0.50;;;18.50;72.20;;;18.59;57.09;94165.34;5021275;28;20223;-80
2022/09/14 04:44:24;;;;;;;0.50;0.50;;;18.40;72.30;;;18.59;57.71;94168.00;5010896;28;20581;-80
2022/09/14 04:46:51;;;;;;;0.50;0.50;;;18.50;72.30;;;18.59;57.72;94164.53;5005864;28;20220;-80
2022/09/14 04:49:20;;;;;;;0.50;0.50;;;18.40;72.40;;;18.56;57.40;94169.28;4992184;28;20640;-80
2022/09/14 04:51:47;;;;;;;0.50;0.50;;;18.40;72.40;;;18.60;57.86;94171.44;5011693;28;20209;-79
2022/09/14 04:54:16;;;;;;;0.50;0.50;;;18.40;72.40;;;18.61;58.11;94173.84;5040051;28;20223;-80
2022/09/14 04:56:44;;;;;;;0.50;0.50;;;18.40;72.50;;;18.62;58.01;94164.03;4995499;28;20224;-80
2022/09/14 04:59:14;;;;;;;0.50;0.50;;;18.40;72.60;;;18.63;57.67;94158.44;4994164;28;20208;-79
2022/09/14 05:01:43;;;;;;;0.40;0.40;;;18.40;72.60;;;18.65;57.69;94166.97;5021207;28;20275;-79
2022/09/14 05:04:11;;;;;;;0.50;0.50;;;18.40;72.70;;;18.66;57.72;94157.94;5000482;28;20585;-80
2022/09/14 05:06:41;;;;;;;0.50;0.50;;;18.50;72.70;;;18.67;57.80;94159.50;5001606;28;20224;-80
2022/09/14 05:09:15;;;;;;;0.50;0.50;;;18.50;72.80;;;18.66;58.03;94143.84;5030208;28;20737;-80
2022/09/14 05:11:43;;;;;;;0.50;0.50;;;18.50;73.20;;;18.67;58.16;94151.53;4992852;28;20251;-80
2022/09/14 05:14:12;;;;;;;0.50;0.50;;;18.50;72.70;;;18.68;57.59;94149.69;5003846;28;20192;-80
2022/09/14 05:16:41;;;;;;;0.50;0.50;;;18.50;72.80;;;18.66;57.81;94149.97;5004299;28;20322;-80
2022/09/14 05:19:13;;;;;;;0.50;0.50;;;18.50;72.70;;;18.69;57.70;94159.25;5013799;28;20646;-80
2022/09/14 05:21:40;;;;;;;0.50;0.50;;;18.50;72.80;;;18.69;57.82;94154.75;5013246;28;20290;-80
2022/09/14 05:24:14;;;;;;;0.50;0.50;;;18.50;72.60;;;18.70;58.38;94166.97;5015782;28;20218;-79
2022/09/14 05:26:43;;;;;;;0.50;0.50;;;18.50;73.10;;;18.71;58.51;94162.44;5004028;28;20219;-80
2022/09/14 05:29:16;;;;;;;0.68;0.68;;;18.50;72.90;;;18.71;58.52;94167.75;5019608;28;20213;-81
2022/09/14 05:31:44;;;;;;;0.50;0.50;;;18.50;73.30;;;18.73;58.27;94163.78;5014881;28;20248;-79
2022/09/14 05:34:12;;;;;;;0.50;0.50;;;18.60;74.00;;;18.77;58.19;94163.25;5019981;28;20246;-81
2022/09/14 05:36:40;;;;;;;0.55;0.55;;;18.60;73.30;;;18.80;58.62;94168.06;5027728;28;20212;-80
2022/09/14 05:39:09;;;;;;;0.50;0.50;;;18.60;73.20;;;18.84;58.41;94158.50;5020071;28;20613;-80
2022/09/14 05:41:36;;;;;;;0.50;0.50;;;18.60;73.30;;;18.87;58.58;94150.81;5009478;28;20216;-80
2022/09/14 05:44:04;;;;;;;0.40;0.40;;;18.70;73.40;;;18.91;58.43;94153.78;5009637;28;20223;-80
2022/09/14 05:46:32;;;;;;;0.50;0.50;;;18.70;73.40;;;18.95;58.71;94141.53;5010708;28;20227;-79
2022/09/14 05:48:59;;;;;;;0.50;0.50;;;18.70;73.50;;;18.97;58.24;94130.63;4998037;28;20556;-80
2022/09/14 05:51:27;;;;;;;0.40;0.40;;;18.70;73.50;;;19.03;58.57;94133.06;5017448;28;20625;-80
2022/09/14 05:53:56;;;;;;;0.50;0.50;;;18.80;73.60;;;19.05;58.54;94135.44;5025787;28;20230;-80
2022/09/14 05:56:30;;;;;;;0.40;0.40;;;18.80;73.60;;;19.03;59.08;94135.72;5012788;28;20212;-79
2022/09/14 05:58:59;;;;;;;0.63;0.63;;;18.90;73.60;;;19.04;58.40;94134.66;5018130;28;20654;-80
2022/09/14 06:01:29;;;;;;;0.40;0.40;;;18.90;73.40;;;19.09;58.82;94135.72;5018388;28;20224;-81
2022/09/14 06:04:00;;;;;;;0.40;0.40;;;18.90;73.20;;;19.12;58.48;94133.31;5019714;28;20189;-79
2022/09/14 06:06:30;;;;;;;0.40;0.40;;;18.90;73.10;;;19.12;58.64;94133.31;5003663;28;20230;-81
2022/09/14 06:08:57;;;;;;;0.50;0.50;;;19.00;73.50;;;19.23;58.80;94141.31;5011596;28;20594;-80
2022/09/14 06:11:28;;;;;;;0.40;0.40;;;19.00;73.40;;;19.26;58.72;94130.97;5002963;28;20236;-81
2022/09/14 06:13:56;;;;;;;0.40;0.40;;;19.00;73.90;;;19.33;58.80;94134.16;5009022;28;20200;-80
2022/09/14 06:16:26;;;;;;;0.40;0.40;;;19.10;73.90;;;19.38;58.63;94141.31;5008521;28;20217;-80
2022/09/14 06:18:56;;;;;;;0.43;0.43;;;19.20;73.90;;;19.43;58.66;94143.19;4998409;28;20192;-81
2022/09/14 06:21:27;;;;;;;0.40;0.40;;;19.20;74.00;;;19.45;58.95;94141.84;5017444;28;20303;-80
2022/09/14 06:23:54;;;;;;;0.47;0.47;;;19.20;74.00;;;19.46;58.62;94137.34;4992734;28;20193;-81
2022/09/14 06:26:22;;;;;;;0.50;0.50;;;19.30;74.10;;;19.49;58.64;94148.25;4993477;28;20761;-80
2022/09/14 06:28:49;;;;;;;0.45;0.45;;;19.30;74.10;;;19.49;58.94;94155.41;5010086;28;20220;-81
2022/09/14 06:31:19;;;;;;;0.50;0.50;;;19.30;73.90;;;19.46;59.05;94161.28;5011787;28;20763;-80
2022/09/14 06:33:48;;;;;;;0.40;0.40;;;19.30;73.90;;;19.46;58.73;94162.06;4994627;28;20208;-81
2022/09/14 06:36:20;;;;;;;0.43;0.43;;;19.30;73.90;;;19.47;59.27;94161.00;4994294;28;20625;-81
2022/09/14 06:38:48;;;;;;;0.40;0.40;;;19.30;74.10;;;19.48;58.81;94156.47;5004059;28;20402;-81
2022/09/14 06:41:21;;;;;;;0.40;0.40;;;19.30;74.00;;;19.49;59.47;94155.41;5011071;28;20224;-81
2022/09/14 06:43:49;;;;;;;0.50;0.50;;;19.30;74.20;;;19.49;59.29;94156.22;5015918;28;20663;-81
2022/09/14 06:46:22;;;;;;;0.40;0.40;;;19.30;74.10;;;19.49;59.27;94150.91;5031018;28;20308;-81
2022/09/14 06:49:00;;;;;;;0.50;0.50;;;19.30;74.30;;;19.51;59.49;94153.28;4996340;28;20727;-82
2022/09/14 06:51:40;;;;;;;0.47;0.47;;;19.30;74.40;;;19.52;59.44;94158.34;4981760;28;20223;-81
2022/09/14 06:54:09;;;;;;;0.40;0.40;;;19.40;74.50;;;19.53;59.04;94167.13;4981849;28;20197;-81
2022/09/14 06:56:39;;;;;;;0.43;0.43;;;19.40;74.50;;;19.54;59.20;94154.63;4997059;28;20311;-82
2022/09/14 06:59:11;;;;;;;0.40;0.40;;;19.40;74.60;;;19.56;59.27;94161.25;4997080;28;20659;-82
2022/09/14 07:01:39;;;;;;;0.40;0.40;;;19.40;74.40;;;19.58;59.56;94153.00;5014136;28;20219;-82
2022/09/14 07:04:07;;;;;;;0.40;0.40;;;19.40;74.40;;;19.56;59.36;94158.59;4981655;28;20243;-82
2022/09/14 07:06:45;;;;;;;0.40;0.40;;;19.40;74.50;;;19.62;59.85;94172.72;5014356;28;20228;-82
2022/09/14 07:09:13;;;;;;;0.40;0.40;;;19.50;75.10;;;19.66;59.49;94176.41;5029675;28;20217;-81
2022/09/14 07:11:42;;;;;;;0.50;0.50;;;19.50;74.80;;;19.69;59.56;94181.22;4997723;28;20209;-81
2022/09/14 07:14:10;;;;;;;0.40;0.40;;;19.50;74.80;;;19.72;59.53;94183.31;4997429;28;20200;-82
2022/09/14 07:16:39;;;;;;;0.40;0.40;;;19.50;74.80;;;19.76;59.50;94180.94;5015739;28;20647;-82
2022/09/14 07:19:11;;;;;;;0.40;0.40;;;19.50;74.90;;;19.75;59.44;94174.81;5013804;28;20208;-82
2022/09/14 07:21:38;;;;;;;0.40;0.40;;;19.60;75.00;;;19.77;60.01;94185.19;5014043;28;20213;-83
2022/09/14 07:24:06;;;;;;;0.40;0.40;;;19.60;74.90;;;19.80;59.92;94198.75;4997637;28;20193;-83
2022/09/14 07:26:43;;;;;;;0.40;0.40;;;19.60;75.00;;;19.82;60.03;94199.31;5003005;28;20224;-83
2022/09/14 07:29:14;;;;;;;0.40;0.40;;;19.60;75.00;;;19.83;59.96;94206.25;5017342;28;20227;-83
2022/09/14 07:31:48;;;;;;;0.40;0.40;;;19.60;74.90;;;19.85;59.45;94176.72;5017215;28;20227;-83
2022/09/14 07:34:17;;;;;;;0.40;0.40;;;19.70;74.60;;;19.82;59.76;94162.03;5031716;28;20188;-83
2022/09/14 07:36:44;;;;;;;0.40;0.40;;;19.70;74.70;;;19.90;59.93;94170.59;5015653;28;20220;-82
2022/09/14 07:39:16;;;;;;;0.50;0.50;;;19.70;75.00;;;19.93;59.75;94176.16;5032377;28;20196;-83
2022/09/14 07:41:44;;;;;;;0.38;0.38;;;19.70;75.30;;;19.98;59.97;94173.50;5033306;28;20239;-82
2022/09/14 07:44:15;;;;;;;0.40;0.40;;;19.80;75.10;;;20.02;59.66;94178.25;5029159;28;20197;-82
2022/09/14 07:46:44;;;;;;;0.30;0.30;;;19.80;75.20;;;20.06;59.95;94168.69;5013990;28;20229;-83
2022/09/14 07:49:13;;;;;;;0.40;0.40;;;19.90;75.40;;;20.12;60.18;94157.75;5029234;28;20222;-83
2022/09/14 07:51:40;;;;;;;0.30;0.30;;;19.90;75.30;;;20.18;60.28;94158.53;5029693;28;20228;-83
2022/09/14 07:54:12;;;;;;;0.40;0.40;;;19.90;75.40;;;20.26;60.18;94162.50;5028396;28;20211;-82
2022/09/14 07:56:39;;;;;;;0.40;0.40;;;20.00;75.50;;;20.33;60.08;94151.56;5027880;28;20596;-83
2022/09/14 07:59:06;;;;;;;0.40;0.40;;;20.10;75.30;;;20.39;59.89;94135.28;4980772;28;20579;-82
2022/09/14 08:01:53;;;;;;;0.47;0.47;;;20.10;75.30;;;20.40;59.97;94123.56;5029744;28;20224;-83
2022/09/14 08:04:21;;;;;;;0.40;0.40;;;20.20;75.20;;;20.42;60.01;94118.78;5018346;28;20218;-83
2022/09/14 08:06:48;;;;;;;0.40;0.40;;;20.30;75.10;;;20.43;60.19;94116.91;5021246;28;20217;-83
2022/09/14 08:09:14;;;;;;;0.40;0.40;;;20.30;75.00;;;20.40;59.76;94088.94;5004144;28;20213;-84
2022/09/14 08:11:41;;;;;;;0.40;0.40;;;20.30;75.00;;;20.40;59.53;94093.50;5017152;28;20239;-83
2022/09/14 08:14:11;;;;;;;0.40;0.40;;;20.30;74.90;;;20.36;60.08;94095.91;5032219;28;20201;-84
2022/09/14 08:16:39;;;;;;;0.47;0.47;;;20.30;75.00;;;20.36;59.97;94087.91;5012272;28;20224;-83
2022/09/14 08:19:14;;;;;;;0.40;0.40;;;20.30;75.00;;;20.33;59.94;94082.34;5012235;28;20201;-84
2022/09/14 08:21:41;;;;;;;0.40;0.40;;;20.20;74.90;;;20.28;59.92;94069.84;5002640;28;20225;-80
2022/09/14 08:24:17;;;;;;;0.40;0.40;;;20.20;75.00;;;20.32;59.89;94068.22;5029191;28;20632;-82
2022/09/14 08:26:46;;;;;;;0.40;0.40;;;20.20;75.10;;;20.33;60.28;94074.34;5039068;28;20619;-83
2022/09/14 08:29:16;;;;;;;0.45;0.45;;;20.20;75.90;;;20.31;60.11;94070.09;5019145;28;20736;-83
2022/09/14 08:31:45;;;;;;;0.40;0.40;;;20.20;75.30;;;20.41;60.01;94079.88;5015389;28;20247;-83
2022/09/14 08:34:14;;;;;;;0.40;0.40;;;20.20;75.40;;;20.48;60.23;94082.25;5029491;28;20298;-83
2022/09/14 08:36:44;;;;;;;0.40;0.40;;;20.20;75.40;;;20.55;60.21;94097.94;5015333;28;20221;-83
2022/09/14 08:39:13;;;;;;;0.40;0.40;;;20.40;75.50;;;20.61;60.11;94099.50;5026755;28;21435;-83
2022/09/14 08:41:56;;;;;;;0.40;0.40;;;20.40;75.50;;;20.69;60.29;94092.78;5009771;28;20288;-83
2022/09/14 08:44:44;;;;;;;0.40;0.40;;;20.50;75.80;;;20.79;60.44;94088.22;4995174;28;20241;-83
2022/09/14 08:47:17;;;;;;;0.40;0.40;;;20.60;75.90;;;20.91;60.89;94100.41;4994406;28;20245;-84
2022/09/14 08:50:17;;;;;;;0.40;0.40;;;20.70;75.80;;;21.04;60.97;94118.44;5029369;28;20766;-82
2022/09/14 08:52:52;;;;;;;0.40;0.40;;;20.90;75.90;;;21.18;60.72;94115.97;5030900;28;20215;-83
2022/09/14 08:55:44;;;;;;;0.40;0.40;;;21.00;75.80;;;21.28;60.41;94107.09;5018388;28;20450;-84
2022/09/14 08:58:48;;;;;;;0.40;0.40;;;21.20;75.70;;;21.39;60.20;94110.47;5011942;28;20228;-83
2022/09/14 09:01:30;;;;;;;0.40;0.40;;;21.30;75.40;;;21.46;59.88;94134.16;5017808;28;20631;-81
2022/09/14 09:04:31;;;;;;;0.40;0.40;;;21.40;75.00;;;21.49;59.64;94115.72;5014386;28;20251;-82
2022/09/14 09:07:37;;;;;;;0.60;0.60;;;21.50;74.80;;;21.53;59.60;94106.09;5028081;28;20311;-82
2022/09/14 09:10:09;;;;;;;0.35;0.35;;;21.50;74.50;;;21.61;59.86;94098.59;5011912;28;20772;-81
2022/09/14 09:12:44;;;;;;;0.40;0.40;;;21.60;74.90;;;21.73;59.78;94099.00;5010821;28;20254;-81
2022/09/14 09:15:25;;;;;;;0.40;0.40;;;21.70;74.90;;;21.79;60.03;94091.72;5022613;28;20203;-81
2022/09/14 09:18:05;;;;;;;0.30;0.30;;;21.70;74.50;;;21.89;59.77;94095.06;5027873;28;20267;-81
2022/09/14 09:20:44;;;;;;;0.40;0.40;;;21.90;74.70;;;22.04;59.63;94086.09;5028182;28;20730;-81
2022/09/14 09:23:21;;;;;;;0.50;0.50;;;21.90;74.80;;;22.19;59.72;94084.34;5020177;28;20693;-80
2022/09/14 09:26:06;;;;;;;0.40;0.40;;;22.10;75.00;;;22.34;59.71;94084.16;5011944;28;20725;-81
2022/09/14 09:28:34;;;;;;;0.40;0.40;;;22.20;74.80;;;22.46;59.32;94088.31;4995599;28;20197;-81
2022/09/14 09:31:05;;;;;;;0.30;0.30;;;22.30;74.50;;;22.57;58.96;94079.09;4995361;28;20247;-81
2022/09/14 09:33:57;;;;;;;0.30;0.30;;;22.50;74.60;;;22.68;59.08;94079.75;5005192;28;20291;-81
2022/09/14 09:36:29;;;;;;;0.30;0.30;;;22.50;74.60;;;22.74;58.95;94067.91;4982454;28;20579;-82
2022/09/14 09:38:58;;;;;;;0.30;0.30;;;22.60;74.40;;;22.77;59.02;94058.50;5002344;28;20197;-82
2022/09/14 09:41:48;;;;;;;0.50;0.50;;;22.60;74.00;;;22.82;58.71;94063.78;5000212;28;20258;-81
2022/09/14 09:44:15;;;;;;;0.40;0.40;;;22.70;73.90;;;22.81;58.75;94054.97;5013605;28;20219;-80
2022/09/14 09:47:00;;;;;;;0.35;0.35;;;22.80;73.90;;;22.80;58.47;94057.91;4993478;28;20282;-81
2022/09/14 09:49:35;;;;;;;0.30;0.30;;;22.80;73.80;;;22.73;58.55;94052.94;5013975;28;20215;-81
2022/09/14 09:52:14;;;;;;;0.50;0.50;;;22.70;73.60;;;22.71;58.22;94071.16;5019065;28;20727;-81
2022/09/14 09:54:50;;;;;;;0.30;0.30;;;22.70;73.50;;;22.63;58.78;94069.94;5014548;28;20685;-80
2022/09/14 09:57:31;;;;;;;0.40;0.40;;;22.70;73.50;;;22.63;58.54;94090.50;4996634;28;20232;-82
2022/09/14 10:00:18;;;;;;;0.40;0.40;;;22.60;73.60;;;22.59;58.49;94076.91;5013236;28;20651;-82
2022/09/14 10:02:45;;;;;;;0.50;0.50;;;22.60;73.90;;;22.58;58.66;94075.31;4992728;28;20561;-82
2022/09/14 10:05:12;;;;;;;0.40;0.40;;;22.60;73.80;;;22.56;58.72;94088.19;4982343;28;20210;-82
2022/09/14 10:08:03;;;;;;;0.30;0.30;;;22.50;73.60;;;22.51;58.56;94081.03;5020380;28;20812;-80
2022/09/14 10:10:37;;;;;;;0.30;0.30;;;22.50;73.60;;;22.49;58.71;94077.06;5023021;28;20708;-80
2022/09/14 10:13:24;;;;;;;0.40;0.40;;;22.40;73.70;;;22.50;58.52;94076.75;5005391;28;20670;-80
2022/09/14 10:15:52;;;;;;;0.40;0.40;;;22.40;73.80;;;22.50;58.60;94067.97;5006887;28;20228;-80
2022/09/14 10:18:29;;;;;;;0.30;0.30;;;22.40;73.80;;;22.52;58.80;94071.94;5035054;28;20303;-80
2022/09/14 10:20:59;;;;;;;0.60;0.60;;;22.40;73.80;;;22.59;58.67;94065.44;5005651;28;20224;-82
2022/09/14 10:23:30;;;;;;;0.40;0.40;;;22.40;73.70;;;22.65;58.50;94066.97;5003180;28;20251;-81
2022/09/14 10:26:12;;;;;;;0.35;0.35;;;22.50;73.90;;;22.70;58.56;94067.69;5020486;28;20542;-81
2022/09/14 10:28:46;;;;;;;0.32;0.32;;;22.50;74.10;;;22.81;58.81;94056.84;5004425;28;20717;-81
2022/09/14 10:31:19;;;;;;;0.40;0.40;;;22.60;74.40;;;22.93;59.15;94051.06;5009069;28;20237;-81
2022/09/14 10:33:55;;;;;;;0.30;0.30;;;22.70;74.70;;;23.06;59.02;94054.84;5003309;28;20287;-81
2022/09/14 10:36:29;;;;;;;0.40;0.40;;;22.80;74.40;;;23.20;59.16;94054.94;5007539;28;20253;-82
2022/09/14 10:39:26;;;;;;;0.40;0.40;;;22.90;74.70;;;23.34;59.15;94053.88;4987921;28;20266;-81
2022/09/14 10:42:35;;;;;;;0.47;0.47;;;23.00;74.60;;;23.53;59.14;94049.56;4984943;28;20248;-81
2022/09/14 10:45:30;;;;;;;0.40;0.40;;;23.30;74.30;;;23.73;58.98;94053.75;4979700;28;20680;-82
2022/09/14 10:48:12;;;;;;;0.50;0.50;;;23.50;74.80;;;23.92;58.97;94037.59;5007391;28;20224;-82
2022/09/14 10:51:01;;;;;;;0.60;0.60;;;23.60;74.30;;;24.12;58.41;94039.91;5008915;28;20800;-81